Time;durP1;ratioP1;P1;durP2;ratioP2;P2;SDS_P1;SDS_P2;PMS_P1;PMS_P2;Temp;Humidity;BMP_temperature;BMP_pressure;BME280_temperature;BME280_humidity;BME280_pressure;Samples;Min_cycle;Max_cycle;Signal;HPM_P1;HPM_P2
2022/07/17 00:00:47;;;;;;;5.60;3.10;;;;;;;22.19;100.00;63183.16;5092372;28;20211;-74
2022/07/17 00:03:16;;;;;;;3.23;2.93;;;;;;;22.27;100.00;63183.50;5093095;28;20196;-76
2022/07/17 00:05:46;;;;;;;4.40;2.63;;;;;;;22.31;100.00;63193.03;5091661;28;20650;-75
2022/07/17 00:08:14;;;;;;;5.37;3.07;;;;;;;22.67;100.00;63232.59;5099882;28;20263;-77
2022/07/17 00:10:43;;;;;;;5.80;3.30;;;;;;;22.51;100.00;63215.25;5097358;28;20210;-75
2022/07/17 00:13:11;;;;;;;9.23;3.20;;;;;;;21.95;100.00;63149.38;5093806;28;20199;-76
2022/07/17 00:15:38;;;;;;;3.83;3.03;;;;;;;22.50;100.00;63211.56;5086980;28;20200;-78
2022/07/17 00:18:07;;;;;;;8.07;3.23;;;;;;;22.37;100.00;63197.47;5089830;28;20208;-75
2022/07/17 00:20:35;;;;;;;6.23;3.30;;;;;;;22.34;100.00;63196.25;5073112;28;20200;-75
2022/07/17 00:23:05;;;;;;;5.87;3.20;;;;;;;22.13;100.00;63174.06;5074257;28;20654;-76
2022/07/17 00:25:33;;;;;;;5.20;3.17;;;;;;;22.41;100.00;63204.41;5093080;28;20203;-76
2022/07/17 00:28:00;;;;;;;3.07;2.77;;;;;;;22.40;100.00;63202.75;5091937;28;20238;-74
2022/07/17 00:30:27;;;;;;;3.43;2.77;;;;;;;21.62;100.00;63119.34;5092737;28;20556;-76
2022/07/17 00:32:54;;;;;;;5.93;3.13;;;;;;;22.44;100.00;63207.09;5091014;28;20201;-77
2022/07/17 00:35:21;;;;;;;7.47;3.40;;;;;;;22.41;100.00;63196.63;5092183;28;20191;-77
2022/07/17 00:37:50;;;;;;;5.60;3.33;;;;;;;22.36;100.00;63196.38;5089840;28;20200;-74
2022/07/17 00:40:23;;;;;;;5.03;2.90;;;;;;;22.16;100.00;63179.91;5091955;28;20219;-77
2022/07/17 00:42:53;;;;;;;4.50;2.60;;;;;;;22.37;100.00;63194.34;5091905;28;20198;-75
2022/07/17 00:45:24;;;;;;;3.37;2.70;;;;;;;22.24;100.00;63180.78;5096944;28;20200;-74
2022/07/17 00:47:56;;;;;;;5.47;2.70;;;;;;;22.28;100.00;63192.91;5091482;28;20213;-75
2022/07/17 00:50:24;;;;;;;17.23;3.20;;;;;;;22.20;100.00;63179.06;5090878;28;20657;-75
2022/07/17 00:52:52;;;;;;;5.93;3.20;;;;;;;22.00;100.00;63162.56;5090725;28;20214;-76
2022/07/17 00:55:21;;;;;;;6.83;3.00;;;;;;;22.11;100.00;63166.16;5090324;28;20199;-76
2022/07/17 00:57:51;;;;;;;4.77;3.00;;;;;;;22.06;100.00;63161.28;5066916;28;20196;-76
2022/07/17 01:00:19;;;;;;;5.07;2.37;;;;;;;22.04;100.00;63164.31;5089274;28;20254;-75
2022/07/17 01:02:49;;;;;;;2.83;2.63;;;;;;;21.99;100.00;63158.91;5079660;28;20199;-76
2022/07/17 01:05:18;;;;;;;7.03;3.20;;;;;;;22.11;100.00;63169.31;5091108;28;20257;-74
2022/07/17 01:07:45;;;;;;;3.43;2.80;;;;;;;22.16;100.00;63176.75;5079405;28;20549;-76
2022/07/17 01:10:16;;;;;;;5.33;2.80;;;;;;;21.93;100.00;63149.81;5072384;28;20200;-75
2022/07/17 01:12:45;;;;;;;9.03;2.87;;;;;;;21.99;100.00;63158.91;5072989;28;20268;-75
2022/07/17 01:15:14;;;;;;;6.40;2.70;;;;;;;22.08;100.00;63165.50;5072348;28;20577;-76
2022/07/17 01:17:44;;;;;;;4.50;3.00;;;;;;;22.06;100.00;63165.94;5071021;28;20216;-76
2022/07/17 01:20:13;;;;;;;3.37;3.07;;;;;;;22.08;100.00;63163.47;5072501;28;20243;-75
2022/07/17 01:22:47;;;;;;;4.70;2.87;;;;;;;22.05;100.00;63160.22;5072118;28;20208;-75
2022/07/17 01:25:16;;;;;;;5.10;3.20;;;;;;;22.07;100.00;63167.56;5088622;28;20252;-75
2022/07/17 01:27:44;;;;;;;5.43;2.50;;;;;;;21.89;100.00;63142.91;5092018;28;20192;-76
2022/07/17 01:30:13;;;;;;;5.27;3.10;;;;;;;21.89;100.00;63148.06;5089389;28;20204;-76
2022/07/17 01:32:43;;;;;;;6.20;3.20;;;;;;;21.87;100.00;63140.19;5070237;28;20196;-76
2022/07/17 01:35:12;;;;;;;10.00;3.77;;;;;;;22.01;100.00;63155.34;5057955;28;20196;-77
2022/07/17 01:37:42;;;;;;;6.03;2.73;;;;;;;21.69;100.00;63121.22;5072016;28;20216;-75
2022/07/17 01:40:13;;;;;;;3.47;3.17;;;;;;;21.67;100.00;63124.25;5079921;28;20697;-76
2022/07/17 01:42:43;;;;;;;5.10;3.10;;;;;;;21.59;100.00;63115.56;5084786;28;20199;-76
2022/07/17 01:45:11;;;;;;;6.53;3.70;;;;;;;21.54;100.00;63110.69;5071398;28;20647;-77
2022/07/17 01:47:38;;;;;;;4.83;3.80;;;;;;;20.99;100.00;63051.69;5084580;28;20669;-75
2022/07/17 01:50:07;;;;;;;10.90;3.87;;;;;;;20.45;100.00;62990.69;5071314;28;20211;-75
2022/07/17 01:52:37;;;;;;;6.97;4.03;;;;;;;21.12;100.00;63064.69;5071939;28;20211;-76
2022/07/17 01:55:06;;;;;;;6.33;3.90;;;;;;;20.75;100.00;63020.53;5071423;28;20196;-75
2022/07/17 01:57:35;;;;;;;12.80;4.93;;;;;;;20.35;100.00;62979.88;5071911;28;20200;-75
2022/07/17 02:00:07;;;;;;;8.10;4.80;;;;;;;19.71;100.00;62910.66;5071735;28;20232;-75
2022/07/17 02:02:34;;;;;;;5.70;4.50;;;;;;;20.12;100.00;62960.16;5071807;28;20200;-76
2022/07/17 02:05:02;;;;;;;11.03;4.60;;;;;;;20.17;100.00;62963.50;5070450;28;20216;-76
2022/07/17 02:07:31;;;;;;;9.17;5.17;;;;;;;20.09;100.00;62954.31;5073066;28;20196;-76
2022/07/17 02:09:58;;;;;;;8.23;4.37;;;;;;;20.07;100.00;62947.53;5096796;28;20264;-75
2022/07/17 02:12:25;;;;;;;6.10;4.10;;;;;;;20.09;100.00;62954.88;5077372;28;20195;-77
2022/07/17 02:14:55;;;;;;;6.73;4.60;;;;;;;20.08;100.00;62948.59;5071416;28;20253;-75
2022/07/17 02:17:22;;;;;;;5.80;4.97;;;;;;;20.13;100.00;62959.19;5071138;28;20219;-76
2022/07/17 02:19:49;;;;;;;5.93;4.67;;;;;;;19.32;100.00;62866.44;5070698;28;20230;-74
2022/07/17 02:22:16;;;;;;;5.60;4.90;;;;;;;20.18;100.00;62964.06;5071313;28;20192;-75
2022/07/17 02:24:43;;;;;;;7.83;4.73;;;;;;;18.99;100.00;62836.50;5071739;28;20210;-76
2022/07/17 02:27:10;;;;;;;6.93;4.73;;;;;;;19.88;100.00;62931.63;5091360;27;20207;-75
2022/07/17 02:29:39;;;;;;;5.97;4.97;;;;;;;19.90;100.00;62931.72;5091033;28;20204;-77
2022/07/17 02:32:09;;;;;;;5.33;4.83;;;;;;;19.98;100.00;62939.84;5090804;28;20199;-76
2022/07/17 02:34:37;;;;;;;8.27;4.83;;;;;;;19.99;100.00;62940.91;5090338;28;20199;-76
2022/07/17 02:37:04;;;;;;;8.47;5.23;;;;;;;19.94;100.00;62938.63;5090715;28;20199;-76
2022/07/17 02:39:31;;;;;;;9.73;5.20;;;;;;;19.74;100.00;62916.50;5085525;28;20285;-75
2022/07/17 02:41:58;;;;;;;6.37;5.27;;;;;;;19.72;100.00;62909.16;5070952;28;20546;-77
2022/07/17 02:44:25;;;;;;;8.80;5.80;;;;;;;19.63;100.00;62907.72;5071081;28;20348;-78
2022/07/17 02:46:52;;;;;;;6.30;5.40;;;;;;;19.56;100.00;62891.88;5070843;28;20667;-76
2022/07/17 02:49:21;;;;;;;7.43;5.30;;;;;;;19.64;100.00;62905.69;5070666;28;20204;-76
2022/07/17 02:51:48;;;;;;;10.90;5.73;;;;;;;19.69;100.00;62913.66;5070782;28;20551;-76
2022/07/17 02:54:16;;;;;;;13.17;5.53;;;;;;;19.34;100.00;62861.41;5070917;28;20542;-76
2022/07/17 02:56:43;;;;;;;11.63;6.17;;;;;;;19.82;100.00;62917.38;5071007;28;20318;-76
2022/07/17 02:59:12;;;;;;;10.70;6.33;;;;;;;19.63;100.00;62905.13;5070826;28;20656;-74
2022/07/17 03:01:39;;;;;;;8.07;5.87;;;;;;;20.01;100.00;62945.66;5070532;28;20196;-75
2022/07/17 03:04:06;;;;;;;7.33;5.50;;;;;;;19.90;100.00;62926.03;5071044;28;20196;-75
2022/07/17 03:06:37;;;;;;;8.13;5.50;;;;;;;19.85;100.00;62923.19;5071243;28;20219;-76
2022/07/17 03:09:04;;;;;;;9.17;5.50;;;;;;;19.91;100.00;62929.69;5071312;28;20204;-75
2022/07/17 03:11:33;;;;;;;8.37;5.30;;;;;;;19.92;100.00;62935.94;5071493;28;20200;-77
2022/07/17 03:14:00;;;;;;;13.00;5.40;;;;;;;19.99;100.00;62943.50;5071249;28;20207;-75
2022/07/17 03:16:29;;;;;;;11.27;5.60;;;;;;;20.12;100.00;62954.97;5071419;28;20236;-76
2022/07/17 03:18:56;;;;;;;10.27;5.33;;;;;;;20.06;100.00;62945.91;5073086;28;20699;-74
2022/07/17 03:21:23;;;;;;;9.40;5.67;;;;;;;19.95;100.00;62936.59;5074891;28;20195;-74
2022/07/17 03:23:54;;;;;;;9.33;5.83;;;;;;;19.89;100.00;62927.53;5077593;28;20198;-75
2022/07/17 03:26:22;;;;;;;8.30;4.90;;;;;;;19.95;100.00;62936.59;5094352;28;20650;-76
2022/07/17 03:28:49;;;;;;;4.33;3.93;;;;;;;19.81;100.00;62918.88;5093837;28;20195;-75
2022/07/17 03:31:17;;;;;;;9.43;4.40;;;;;;;20.15;100.00;62960.81;5082407;28;20207;-76
2022/07/17 03:33:46;;;;;;;3.77;3.33;;;;;;;20.15;100.00;62961.34;5074297;28;20546;-75
2022/07/17 03:36:13;;;;;;;5.77;3.90;;;;;;;20.33;100.00;62977.16;5073958;28;20204;-76
2022/07/17 03:38:40;;;;;;;5.07;3.50;;;;;;;20.46;100.00;62989.19;5073608;28;20196;-76
2022/07/17 03:41:09;;;;;;;8.47;3.60;;;;;;;20.59;100.00;63005.81;5078594;28;20242;-76
2022/07/17 03:43:36;;;;;;;4.90;3.47;;;;;;;20.73;100.00;63023.56;5093663;27;20582;-78
2022/07/17 03:46:03;;;;;;;5.40;3.33;;;;;;;20.48;100.00;62996.53;5093115;28;20199;-76
2022/07/17 03:48:30;;;;;;;3.90;2.97;;;;;;;21.01;100.00;63051.28;5093917;28;20278;-76
2022/07/17 03:50:58;;;;;;;5.00;3.40;;;;;;;21.11;100.00;63063.63;5086394;28;20200;-77
2022/07/17 03:53:24;;;;;;;7.03;3.50;;;;;;;21.14;100.00;63064.81;5086242;28;20200;-76
2022/07/17 03:55:51;;;;;;;5.80;3.47;;;;;;;21.26;100.00;63077.25;5074051;28;20208;-76
2022/07/17 03:58:20;;;;;;;7.80;3.10;;;;;;;21.35;100.00;63090.13;5073204;28;20200;-75
2022/07/17 04:00:49;;;;;;;4.40;3.20;;;;;;;21.34;100.00;63088.50;5073274;28;20235;-76
2022/07/17 04:03:16;;;;;;;5.43;2.77;;;;;;;21.49;100.00;63102.16;5074834;28;20200;-78
2022/07/17 04:05:43;;;;;;;3.97;3.07;;;;;;;21.63;100.00;63119.91;5060864;28;20197;-76
2022/07/17 04:08:12;;;;;;;4.30;3.13;;;;;;;21.66;100.00;63117.97;5074080;28;20574;-75
2022/07/17 04:10:40;;;;;;;4.63;3.00;;;;;;;21.67;100.00;63124.25;5076475;28;20676;-75
2022/07/17 04:13:06;;;;;;;5.23;2.97;;;;;;;21.77;100.00;63132.47;5073894;28;20204;-76
2022/07/17 04:15:52;;;;;;;5.27;2.93;;;;;;;21.98;100.00;63157.28;5073292;28;20196;-76
2022/07/17 04:18:20;;;;;;;8.77;3.37;;;;;;;22.19;100.00;63177.97;5061969;28;20216;-75
2022/07/17 04:20:48;;;;;;;5.27;3.00;;;;;;;22.31;100.00;63190.97;5073795;28;20652;-76
2022/07/17 04:23:18;;;;;;;8.20;3.23;;;;;;;22.42;100.00;63202.88;5081753;28;20192;-74
2022/07/17 04:25:46;;;;;;;4.33;2.73;;;;;;;22.23;100.00;63184.34;5096207;28;20229;-76
2022/07/17 04:28:15;;;;;;;3.10;2.80;;;;;;;22.63;100.00;63228.25;5090471;28;20197;-76
2022/07/17 04:30:43;;;;;;;4.37;2.70;;;;;;;22.51;100.00;63210.03;5072822;28;20634;-76
2022/07/17 04:33:11;;;;;;;3.23;2.40;;;;;;;22.65;100.00;63227.84;5073067;28;20199;-76
2022/07/17 04:35:39;;;;;;;3.33;2.70;;;;;;;22.85;100.00;63251.00;5083470;28;20206;-75
2022/07/17 04:38:08;;;;;;;6.23;3.00;;;;;;;22.97;100.00;63266.63;5088758;28;20200;-75
2022/07/17 04:40:37;;;;;;;5.10;2.67;;;;;;;23.21;100.00;63290.03;5073184;28;20320;-75
2022/07/17 04:43:05;;;;;;;6.73;3.27;;;;;;;23.08;100.00;63270.75;5093051;28;20196;-75
2022/07/17 04:45:32;;;;;;;7.93;3.30;;;;;;;23.21;100.00;63284.84;5093142;28;20195;-74
2022/07/17 04:48:00;;;;;;;4.87;3.03;;;;;;;23.31;100.00;63295.69;5093120;28;20200;-76
2022/07/17 04:50:28;;;;;;;3.60;2.70;;;;;;;23.06;100.00;63273.78;5077904;28;20196;-76
2022/07/17 04:52:56;;;;;;;5.17;2.70;;;;;;;23.61;100.00;63333.44;5073140;28;20204;-77
2022/07/17 04:55:25;;;;;;;6.10;3.27;;;;;;;23.83;100.00;63357.31;5072759;28;20196;-76
2022/07/17 04:57:53;;;;;;;6.53;2.83;;;;;;;23.87;100.00;63361.09;5072965;28;20201;-76
2022/07/17 05:00:21;;;;;;;4.00;3.00;;;;;;;24.24;100.00;63401.81;5072649;28;20312;-77
2022/07/17 05:02:48;;;;;;;4.00;3.03;;;;;;;24.40;100.00;63418.09;5072590;28;20197;-75
2022/07/17 05:05:17;;;;;;;6.10;2.93;;;;;;;24.43;100.00;63419.28;5072325;28;20209;-76
2022/07/17 05:07:44;;;;;;;5.80;3.10;;;;;;;24.50;100.00;63426.88;5085505;28;20196;-76
2022/07/17 05:10:11;;;;;;;4.10;2.60;;;;;;;24.60;100.00;63439.78;5084097;28;20542;-75
2022/07/17 05:12:40;;;;;;;5.73;3.07;;;;;;;24.59;100.00;63436.13;5086981;28;20648;-75
2022/07/17 05:15:09;;;;;;;6.97;3.03;;;;;;;24.50;100.00;63428.94;5072335;28;20617;-76
2022/07/17 05:17:38;;;;;;;3.30;2.70;;;;;;;24.77;100.00;63453.06;5077868;28;20216;-76
2022/07/17 05:20:08;;;;;;;6.13;2.80;;;;;;;24.60;100.00;63439.78;5079121;28;20711;-75
2022/07/17 05:22:38;;;;;;;5.13;2.87;;;;;;;24.53;100.00;63427.00;5059367;28;20190;-75
2022/07/17 05:25:06;;;;;;;4.77;2.77;;;;;;;24.52;100.00;63431.13;5071865;28;20689;-75
2022/07/17 05:27:34;;;;;;;3.30;2.50;;;;;;;24.79;100.00;63457.84;5071928;28;20676;-76
2022/07/17 05:30:01;;;;;;;7.67;2.57;;;;;;;25.04;100.00;63487.59;5072115;28;20206;-75
2022/07/17 05:32:28;;;;;;;3.93;2.70;;;;;;;25.05;100.00;63484.00;5071783;28;20676;-78
2022/07/17 05:34:57;;;;;;;4.00;2.60;;;;;;;25.26;100.00;63508.88;5072604;28;20199;-75
2022/07/17 05:37:24;;;;;;;3.03;2.73;;;;;;;25.45;100.00;63526.38;5071957;28;20206;-75
2022/07/17 05:39:54;;;;;;;5.27;2.77;;;;;;;25.39;100.00;63520.41;5071581;28;20237;-76
2022/07/17 05:42:22;;;;;;;3.23;2.80;;;;;;;25.88;100.00;63573.09;5086059;28;20255;-75
2022/07/17 05:44:49;;;;;;;3.40;2.53;;;;;;;25.57;100.00;63542.56;5082684;28;20204;-75
2022/07/17 05:47:16;;;;;;;3.50;2.80;;;;;;;26.01;100.00;63584.06;5072129;28;20664;-77
2022/07/17 05:49:45;;;;;;;4.87;2.77;;;;;;;26.07;100.00;63598.44;5062302;28;20296;-75
2022/07/17 05:52:12;;;;;;;2.80;2.53;;;;;;;25.93;100.00;63584.31;5067765;28;20207;-75
2022/07/17 05:54:39;;;;;;;3.97;2.30;;;;;;;25.78;100.00;63568.00;5071566;28;20195;-75
2022/07/17 05:57:09;;;;;;;4.37;2.70;;;;;;;26.09;100.00;63598.00;5071837;28;20246;-76
2022/07/17 05:59:36;;;;;;;5.53;2.70;;;;;;;26.05;100.00;63591.56;5072123;28;20654;-76
2022/07/17 06:02:03;;;;;;;3.87;2.60;;;;;;;26.23;100.00;63610.63;5071677;28;20264;-74
2022/07/17 06:04:31;;;;;;;3.97;2.80;;;;;;;26.46;100.00;63638.78;5071434;28;20650;-76
2022/07/17 06:07:02;;;;;;;4.37;2.93;;;;;;;26.24;100.00;63611.72;5070169;28;20203;-74
2022/07/17 06:09:30;;;;;;;5.17;2.83;;;;;;;25.98;100.00;63589.72;5071434;28;20234;-74
2022/07/17 06:11:58;;;;;;;5.03;2.80;;;;;;;25.27;100.00;63502.16;5074308;28;20196;-76
2022/07/17 06:14:27;;;;;;;4.07;2.93;;;;;;;26.35;100.00;63624.22;5070573;28;20196;-75
2022/07/17 06:16:54;;;;;;;4.33;2.80;;;;;;;26.22;100.00;63609.53;5071263;28;20235;-76
2022/07/17 06:19:22;;;;;;;5.27;2.90;;;;;;;26.63;100.00;63654.09;5071198;28;20219;-76
2022/07/17 06:21:49;;;;;;;4.23;2.60;;;;;;;26.89;100.00;63682.41;5070937;28;20285;-75
2022/07/17 06:24:16;;;;;;;3.33;2.40;;;;;;;26.42;100.00;63633.91;5071912;28;20196;-75
2022/07/17 06:26:45;;;;;;;7.27;3.10;;;;;;;26.63;100.00;63659.88;5071702;28;20200;-76
2022/07/17 06:29:13;;;;;;;8.67;3.20;;;;;;;26.94;100.00;63687.84;5071556;28;20226;-75
2022/07/17 06:31:43;;;;;;;8.20;2.80;;;;;;;27.12;100.00;63707.44;5071095;28;20730;-75
2022/07/17 06:34:10;;;;;;;7.17;2.70;;;;;;;26.73;100.00;63670.22;5058070;28;20277;-75
2022/07/17 06:36:39;;;;;;;3.67;2.77;;;;;;;27.16;100.00;63711.78;5071848;28;20219;-77
2022/07/17 06:39:06;;;;;;;4.13;3.30;;;;;;;27.25;100.00;63726.78;5059300;28;20212;-75
2022/07/17 06:41:33;;;;;;;5.17;3.13;;;;;;;27.24;100.00;63722.53;5070605;28;20678;-75
2022/07/17 06:44:01;;;;;;;6.47;3.10;;;;;;;26.73;100.00;63665.00;5069662;28;20253;-74
2022/07/17 06:46:28;;;;;;;4.50;2.80;;;;;;;27.04;100.00;63698.16;5071336;28;20199;-76
2022/07/17 06:48:57;;;;;;;2.70;2.43;;;;;;;26.81;100.00;63675.75;5071090;28;20204;-74
2022/07/17 06:51:23;;;;;;;3.47;2.80;;;;;;;26.96;100.00;63689.47;5071068;28;20214;-76
2022/07/17 06:53:51;;;;;;;6.33;3.27;;;;;;;27.45;100.00;63743.34;5075357;28;20192;-75
2022/07/17 06:56:20;;;;;;;3.70;2.63;;;;;;;26.61;100.00;63657.69;5086118;28;20248;-75
2022/07/17 06:58:47;;;;;;;3.37;3.03;;;;;;;26.87;100.00;63680.22;5084155;28;20221;-75
2022/07/17 07:01:15;;;;;;;2.90;2.70;;;;;;;27.47;100.00;63745.50;5093800;28;20225;-76
2022/07/17 07:03:43;;;;;;;5.83;2.90;;;;;;;27.73;100.00;63772.72;5094516;28;20226;-75
2022/07/17 07:06:13;;;;;;;5.43;3.00;;;;;;;26.93;100.00;63691.44;5093598;28;20198;-75
2022/07/17 07:08:41;;;;;;;3.70;3.10;;;;;;;27.21;100.00;63714.59;5094724;28;20282;-75
2022/07/17 07:11:09;;;;;;;4.87;3.17;;;;;;;28.02;100.00;63809.53;5089641;28;20226;-75
2022/07/17 07:13:36;;;;;;;6.50;2.83;;;;;;;28.39;100.00;63844.59;5086012;28;20199;-75
2022/07/17 07:16:04;;;;;;;3.43;2.73;;;;;;;28.76;100.00;63884.91;5080922;28;20230;-75
2022/07/17 07:18:32;;;;;;;5.30;3.03;;;;;;;28.85;100.00;63894.19;5094328;28;20228;-75
2022/07/17 07:21:02;;;;;;;7.43;3.00;;;;;;;29.03;100.00;63914.34;5074812;28;20226;-78
2022/07/17 07:23:32;;;;;;;5.93;2.83;;;;;;;28.91;100.00;63901.25;5074255;28;20280;-75
2022/07/17 07:26:00;;;;;;;6.33;3.13;;;;;;;28.72;100.00;63880.56;5073991;28;20201;-76
2022/07/17 07:28:35;;;;;;;5.53;3.10;;;;;;;27.89;100.00;63795.91;5087694;28;20287;-75
2022/07/17 07:31:03;;;;;;;3.27;2.97;;;;;;;28.77;100.00;63886.00;5074158;28;20577;-75
2022/07/17 07:33:32;;;;;;;5.20;3.00;;;;;;;28.71;100.00;63882.09;5074709;28;20204;-77
2022/07/17 07:35:59;;;;;;;4.57;3.03;;;;;;;27.89;100.00;63790.16;5074770;28;20219;-76
2022/07/17 07:38:28;;;;;;;3.47;3.10;;;;;;;28.83;100.00;63892.53;5075333;28;20296;-75
2022/07/17 07:40:56;;;;;;;3.20;2.90;;;;;;;28.81;100.00;63893.00;5077332;28;20231;-75
2022/07/17 07:43:24;;;;;;;3.67;2.67;;;;;;;28.79;100.00;63893.44;5083427;28;20200;-76
2022/07/17 07:45:51;;;;;;;4.60;3.00;;;;;;;29.06;100.00;63917.59;5074216;28;20199;-76
2022/07/17 07:48:20;;;;;;;4.33;2.83;;;;;;;27.77;100.00;63777.09;5074604;28;20208;-75
2022/07/17 07:50:49;;;;;;;7.00;3.00;;;;;;;29.05;100.00;63921.75;5074470;28;20198;-76
2022/07/17 07:53:18;;;;;;;6.83;3.37;;;;;;;29.12;100.00;63929.38;5074149;28;20226;-75
2022/07/17 07:55:45;;;;;;;3.77;2.80;;;;;;;29.39;100.00;63952.50;5074621;28;20229;-76
2022/07/17 07:58:14;;;;;;;8.50;3.13;;;;;;;28.38;100.00;63843.50;5073703;28;20563;-75
2022/07/17 08:00:45;;;;;;;5.70;3.07;;;;;;;29.46;94.51;63960.13;5074123;28;20230;-74
2022/07/17 08:03:13;;;;;;;3.80;2.67;;;;;;;29.12;100.00;63929.38;5072752;28;20196;-75
2022/07/17 08:05:42;;;;;;;3.77;2.80;;;;;;;28.70;100.00;63878.38;5063885;28;20205;-75
2022/07/17 08:08:09;;;;;;;5.90;3.00;;;;;;;29.54;96.68;63971.47;5075437;28;20206;-76
2022/07/17 08:10:36;;;;;;;3.33;3.00;;;;;;;29.39;94.40;63953.03;5063844;28;20198;-75
2022/07/17 08:13:04;;;;;;;6.33;2.70;;;;;;;28.71;100.00;63884.72;5075617;28;20649;-76
2022/07/17 08:15:34;;;;;;;5.63;2.90;;;;;;;28.84;97.32;63893.63;5073809;28;20201;-76
2022/07/17 08:18:02;;;;;;;5.90;3.40;;;;;;;29.43;100.00;63956.84;5086316;28;20200;-75
2022/07/17 08:20:29;;;;;;;7.47;3.60;;;;;;;29.07;98.27;63921.31;5073301;28;20206;-75
2022/07/17 08:22:56;;;;;;;5.00;3.10;;;;;;;30.01;98.13;64020.66;5073474;28;20200;-77
2022/07/17 08:25:27;;;;;;;4.33;2.90;;;;;;;30.27;97.16;64047.91;5073477;28;20275;-77
2022/07/17 08:27:54;;;;;;;6.67;2.93;;;;;;;30.36;90.85;64058.31;5073122;28;20200;-77
2022/07/17 08:30:22;;;;;;;5.30;2.80;;;;;;;29.13;87.73;63924.69;5072908;28;20714;-76
2022/07/17 08:32:50;;;;;;;4.87;2.87;;;;;;;30.07;90.66;64026.63;5073472;28;20204;-75
2022/07/17 08:35:17;;;;;;;4.67;2.80;;;;;;;29.79;87.29;64004.00;5073667;28;20255;-77
2022/07/17 08:37:53;;;;;;;5.00;2.80;;;;;;;30.18;85.50;64038.66;5072850;28;20207;-77
2022/07/17 08:40:26;;;;;;;9.30;2.87;;;;;;;30.04;85.06;64026.53;5072811;28;20655;-76
2022/07/17 08:42:54;;;;;;;3.90;3.00;;;;;;;29.52;91.56;63966.66;5092160;28;20235;-74
2022/07/17 08:45:21;;;;;;;6.77;2.77;;;;;;;30.00;87.51;64016.38;5082753;28;20199;-75
2022/07/17 08:47:51;;;;;;;4.63;2.87;;;;;;;30.24;81.72;64045.19;5083922;28;20661;-76
2022/07/17 08:50:22;;;;;;;3.73;2.67;;;;;;;29.15;79.75;63924.81;5072643;28;20267;-76
2022/07/17 08:52:50;;;;;;;2.80;2.60;;;;;;;30.47;84.89;64070.28;5073039;28;20197;-75
2022/07/17 08:55:18;;;;;;;4.03;2.97;;;;;;;30.66;91.16;64093.09;5072707;28;20562;-76
2022/07/17 08:57:48;;;;;;;4.23;2.90;;;;;;;30.62;76.52;64086.66;5071160;28;20200;-77
2022/07/17 09:00:18;;;;;;;4.17;3.20;;;;;;;30.81;76.76;64107.38;5074179;28;20257;-75
2022/07/17 09:02:58;;;;;;;3.43;2.93;;;;;;;30.33;80.87;64054.47;5081538;28;20235;-75
2022/07/17 09:05:27;;;;;;;3.53;2.90;;;;;;;29.80;84.36;63997.22;5072179;28;20198;-76
2022/07/17 09:07:54;;;;;;;3.77;2.77;;;;;;;30.27;79.67;64045.81;5072637;28;20203;-75
2022/07/17 09:10:32;;;;;;;2.87;2.57;;;;;;;30.01;79.64;64020.09;5072718;28;20202;-76
2022/07/17 09:13:00;;;;;;;4.27;2.77;;;;;;;30.50;87.25;64073.03;5071666;28;20207;-76
2022/07/17 09:15:28;;;;;;;6.33;3.17;;;;;;;30.53;81.41;64076.84;5072379;28;20202;-77
2022/07/17 09:17:57;;;;;;;3.37;2.47;;;;;;;30.34;76.09;64056.13;5085321;28;20220;-75
2022/07/17 09:20:24;;;;;;;3.43;3.13;;;;;;;30.49;77.68;64072.47;5032044;28;20198;-74
2022/07/17 09:22:59;;;;;;;5.17;2.93;;;;;;;30.77;74.22;64100.38;5024834;28;20226;-76
2022/07/17 09:25:36;;;;;;;3.17;2.77;;;;;;;31.25;71.45;64157.50;5028536;28;20282;-76
2022/07/17 09:28:05;;;;;;;2.70;2.50;;;;;;;30.76;70.41;64101.94;5032640;28;20201;-76
2022/07/17 09:30:35;;;;;;;4.70;2.60;;;;;;;31.77;69.36;64211.13;5031541;28;20197;-76
2022/07/17 09:33:07;;;;;;;6.90;2.80;;;;;;;31.57;68.51;64189.28;5031857;28;20580;-76
2022/07/17 09:35:35;;;;;;;3.70;2.90;;;;;;;31.22;67.70;64151.06;5031478;28;20313;-76
2022/07/17 09:38:03;;;;;;;2.97;2.40;;;;;;;30.42;70.07;64067.47;5031390;28;20233;-75
2022/07/17 09:43:15;;;;;;;4.00;2.63;;;;;;;31.79;65.06;64213.31;5021207;28;20308;-75
2022/07/17 09:45:43;;;;;;;3.67;2.80;;;;;;;31.85;64.67;64217.22;5028550;28;20191;-77
2022/07/17 09:48:12;;;;;;;3.60;2.73;;;;;;;31.72;63.17;64205.66;5012116;28;20198;-76
2022/07/17 09:50:43;;;;;;;2.80;2.57;;;;;;;31.22;60.08;64151.06;5012042;28;20256;-76
2022/07/17 09:53:11;;;;;;;5.30;2.70;;;;;;;31.51;64.79;64185.38;5012672;28;20200;-75
2022/07/17 09:55:43;;;;;;;6.30;2.87;;;;;;;31.18;66.23;64146.69;5011987;28;20199;-76
2022/07/17 09:58:13;;;;;;;3.30;2.83;;;;;;;32.29;63.27;64267.94;5024279;28;20199;-75
2022/07/17 10:00:41;;;;;;;6.53;2.60;;;;;;;32.09;63.58;64246.09;5012123;28;20217;-75
2022/07/17 10:03:09;;;;;;;3.67;2.70;;;;;;;31.85;64.84;64219.88;5011845;28;20278;-75
2022/07/17 10:05:38;;;;;;;3.67;2.80;;;;;;;31.55;64.41;64187.09;5018340;28;20551;-75
2022/07/17 10:08:08;;;;;;;5.13;2.60;;;;;;;31.65;65.22;64198.56;5018569;28;20210;-76
2022/07/17 10:10:35;;;;;;;10.77;2.90;;;;;;;31.98;61.91;64236.72;5014568;28;20208;-75
2022/07/17 10:13:04;;;;;;;4.83;2.80;;;;;;;32.15;61.68;64250.00;5012194;28;20565;-75
2022/07/17 10:15:31;;;;;;;10.83;2.47;;;;;;;32.63;59.47;64304.00;5012005;28;20196;-76
2022/07/17 10:18:05;;;;;;;5.93;2.60;;;;;;;32.21;60.90;64261.84;5011802;28;20222;-76
2022/07/17 10:20:34;;;;;;;6.50;2.70;;;;;;;32.59;60.39;64294.38;5061290;28;20198;-77
2022/07/17 10:23:13;;;;;;;8.43;2.87;;;;;;;31.49;63.53;64185.81;5072263;28;20268;-75
2022/07/17 10:25:42;;;;;;;3.67;2.87;;;;;;;32.06;58.82;64242.81;5071545;28;20224;-76
2022/07/17 10:28:09;;;;;;;3.83;2.73;;;;;;;32.34;57.32;64273.41;5071058;28;20195;-77
2022/07/17 10:30:42;;;;;;;6.20;2.70;;;;;;;32.03;60.33;64244.81;5071218;28;20227;-75
2022/07/17 10:33:09;;;;;;;8.20;2.70;;;;;;;32.34;59.16;64272.84;5071255;28;20201;-75
2022/07/17 10:35:46;;;;;;;4.93;2.60;;;;;;;32.39;59.71;64278.88;5072221;28;20216;-76
2022/07/17 10:38:16;;;;;;;5.07;2.60;;;;;;;32.31;56.79;64269.56;5071543;28;20208;-76
2022/07/17 10:40:43;;;;;;;3.00;2.60;;;;;;;31.35;58.80;64165.25;5071402;28;20201;-76
2022/07/17 10:43:12;;;;;;;3.00;2.80;;;;;;;32.34;56.17;64278.13;5071144;28;20230;-76
2022/07/17 10:48:28;;;;;;;4.00;3.07;;;;;;;32.28;57.22;64266.28;5071655;28;20659;-77
2022/07/17 10:50:59;;;;;;;10.63;2.97;;;;;;;32.17;57.55;64254.84;5070928;28;20219;-75
2022/07/17 10:53:43;;;;;;;6.73;2.93;;;;;;;32.00;60.10;64236.25;5071141;28;20200;-76
2022/07/17 10:56:13;;;;;;;3.13;2.67;;;;;;;32.25;60.74;64263.56;5060211;28;20564;-75
2022/07/17 10:58:44;;;;;;;3.87;2.63;;;;;;;31.64;59.78;64200.13;5071132;28;20204;-75
2022/07/17 11:01:12;;;;;;;3.53;3.00;;;;;;;32.32;61.56;64276.50;5071097;28;20205;-75
2022/07/17 11:03:46;;;;;;;6.70;3.93;;;;;;;32.51;56.99;64291.44;5072402;28;20198;-78
2022/07/17 11:06:21;;;;;;;3.80;2.70;;;;;;;32.30;60.92;64268.47;5072141;28;20198;-76
2022/07/17 11:08:53;;;;;;;3.83;2.60;;;;;;;32.10;57.79;64252.47;5071288;28;20260;-76
2022/07/17 11:11:22;;;;;;;2.90;2.60;;;;;;;31.64;59.27;64197.47;5071692;28;20667;-76
2022/07/17 11:13:50;;;;;;;4.47;3.10;;;;;;;32.69;60.97;64315.84;5058975;28;20196;-76
2022/07/17 11:16:28;;;;;;;3.20;2.90;;;;;;;32.91;57.70;64334.63;5072106;28;20291;-77
2022/07/17 11:18:56;;;;;;;3.60;2.80;;;;;;;32.99;56.06;64340.72;5070729;28;20234;-76
2022/07/17 11:21:24;;;;;;;4.40;2.87;;;;;;;33.56;56.45;64405.72;5071497;28;20296;-78
2022/07/17 11:23:55;;;;;;;3.63;2.60;;;;;;;33.30;55.36;64374.63;5071147;28;20199;-74
2022/07/17 11:26:23;;;;;;;5.40;2.67;;;;;;;32.01;57.39;64236.81;5071608;28;20274;-77
2022/07/17 11:28:53;;;;;;;3.00;2.47;;;;;;;32.31;59.10;64269.56;5071552;28;20226;-76
2022/07/17 11:31:22;;;;;;;4.73;2.67;;;;;;;33.35;57.17;64384.81;5072249;28;20610;-76
2022/07/17 11:33:55;;;;;;;4.17;3.00;;;;;;;33.81;54.94;64437.78;5070288;28;20274;-76
2022/07/17 11:36:27;;;;;;;4.20;2.90;;;;;;;33.54;55.91;64402.97;5071352;28;20202;-77
2022/07/17 11:38:59;;;;;;;4.30;2.80;;;;;;;33.50;57.83;64399.16;5071720;28;20213;-77